createdAt,value
2017-07-17T00:02:02.939Z,21.30
2017-07-17T00:04:31.830Z,21.30
2017-07-17T00:07:00.715Z,21.30
2017-07-17T00:09:30.358Z,21.30
2017-07-17T00:11:59.225Z,21.30
2017-07-17T00:14:28.105Z,21.30
2017-07-17T00:16:57.766Z,21.20
2017-07-17T00:19:26.662Z,21.20
2017-07-17T00:21:55.554Z,21.20
2017-07-17T00:24:24.444Z,21.20
2017-07-17T00:26:53.338Z,21.10
2017-07-17T00:29:22.208Z,21.10
2017-07-17T00:31:51.076Z,21.10
2017-07-17T00:34:19.958Z,21.00
2017-07-17T00:36:49.617Z,21.00
2017-07-17T00:39:18.500Z,21.00
2017-07-17T00:41:47.367Z,21.00
2017-07-17T00:44:16.241Z,21.00
2017-07-17T00:46:45.895Z,20.90
2017-07-17T00:49:14.786Z,20.90
2017-07-17T00:51:43.667Z,20.90
2017-07-17T00:54:12.519Z,20.90
2017-07-17T00:56:42.123Z,20.90
2017-07-17T00:59:11.001Z,20.80
2017-07-17T01:01:39.885Z,20.80
2017-07-17T01:04:08.769Z,20.80
2017-07-17T01:06:37.653Z,20.80
2017-07-17T01:09:06.530Z,20.80
2017-07-17T01:11:35.399Z,20.80
2017-07-17T01:14:04.277Z,20.70
2017-07-17T01:16:33.925Z,20.60
2017-07-17T01:19:02.803Z,20.50
2017-07-17T01:21:31.687Z,20.40
2017-07-17T01:24:00.569Z,20.40
2017-07-17T01:26:29.453Z,20.40
2017-07-17T01:28:59.093Z,20.40
2017-07-17T01:31:27.975Z,20.40
2017-07-17T01:33:56.853Z,20.40
2017-07-17T01:36:25.741Z,20.40
2017-07-17T01:38:54.634Z,20.40
2017-07-17T01:41:23.529Z,20.40
2017-07-17T01:43:52.414Z,20.40
2017-07-17T01:46:21.275Z,20.40
2017-07-17T01:48:50.163Z,20.50
2017-07-17T01:51:18.686Z,20.50
2017-07-17T01:53:47.584Z,20.50
2017-07-17T01:56:16.482Z,20.50
2017-07-17T01:58:45.370Z,20.50
2017-07-17T02:01:14.250Z,20.50
2017-07-17T02:03:43.125Z,20.40
2017-07-17T02:06:12.780Z,20.40
2017-07-17T02:08:41.661Z,20.40
2017-07-17T02:11:10.549Z,20.40
2017-07-17T02:13:39.414Z,20.40
2017-07-17T02:16:09.024Z,20.40
2017-07-17T02:18:38.664Z,20.40
2017-07-17T02:21:07.544Z,20.40
2017-07-17T02:23:36.411Z,20.40
2017-07-17T02:26:06.052Z,20.40
2017-07-17T02:28:34.945Z,20.30
2017-07-17T02:31:03.822Z,20.30
2017-07-17T02:33:32.718Z,20.30
2017-07-17T02:36:01.556Z,20.30
2017-07-17T02:38:30.436Z,20.30
2017-07-17T02:40:59.327Z,20.30
2017-07-17T02:43:28.176Z,20.30
2017-07-17T02:45:57.044Z,20.30
2017-07-17T02:48:26.646Z,20.30
2017-07-17T02:50:55.536Z,20.30
2017-07-17T02:53:24.421Z,20.30
2017-07-17T02:55:53.293Z,20.30
2017-07-17T02:58:22.141Z,20.30
2017-07-17T03:00:50.999Z,20.30
2017-07-17T03:03:19.885Z,20.30
2017-07-17T03:05:48.766Z,20.20
2017-07-17T03:08:17.622Z,20.20
2017-07-17T03:10:46.470Z,20.30
2017-07-17T03:13:15.315Z,20.30
2017-07-17T03:15:44.212Z,20.30
2017-07-17T03:18:13.073Z,20.20
2017-07-17T03:20:41.966Z,20.20
2017-07-17T03:23:10.644Z,20.20
2017-07-17T03:28:19.844Z,20.20
2017-07-17T03:30:49.204Z,20.20
2017-07-17T03:33:18.069Z,20.20
2017-07-17T03:35:46.961Z,20.20
2017-07-17T03:38:16.618Z,20.20
2017-07-17T03:40:45.496Z,20.20
2017-07-17T03:43:30.432Z,20.20
2017-07-17T03:46:01.206Z,20.20
2017-07-17T03:48:30.118Z,20.10
2017-07-17T03:50:59.485Z,20.10
2017-07-17T03:53:28.373Z,20.20
2017-07-17T03:55:57.254Z,20.10
2017-07-17T03:58:26.900Z,20.10
2017-07-17T04:00:55.777Z,20.10
2017-07-17T04:03:24.648Z,20.10
2017-07-17T04:05:53.542Z,20.10
2017-07-17T04:08:22.426Z,20.10
2017-07-17T04:10:52.062Z,20.00
2017-07-17T04:13:20.944Z,20.00
2017-07-17T04:15:49.831Z,20.10
2017-07-17T04:18:18.705Z,20.10
2017-07-17T04:20:48.341Z,20.00
2017-07-17T04:23:17.221Z,20.00
2017-07-17T04:25:46.080Z,20.00
2017-07-17T04:28:14.961Z,20.00
2017-07-17T04:30:43.850Z,20.00
2017-07-17T04:33:12.724Z,20.00
2017-07-17T04:35:41.605Z,20.00
2017-07-17T04:38:10.481Z,20.00
2017-07-17T04:40:39.357Z,20.00
2017-07-17T04:43:08.210Z,20.00
2017-07-17T04:45:37.084Z,20.00
2017-07-17T04:48:05.986Z,20.00
2017-07-17T04:50:34.878Z,20.00
2017-07-17T04:53:03.757Z,20.00
2017-07-17T04:55:32.657Z,20.00
2017-07-17T04:58:01.531Z,20.00
2017-07-17T05:00:30.375Z,20.00
2017-07-17T05:02:59.988Z,20.00
2017-07-17T05:05:28.880Z,20.00
2017-07-17T05:07:57.743Z,20.00
2017-07-17T05:10:26.634Z,20.10
2017-07-17T05:12:55.522Z,20.10
2017-07-17T05:15:24.407Z,20.00
2017-07-17T05:17:53.293Z,20.00
2017-07-17T05:20:22.145Z,20.00
2017-07-17T05:22:51.037Z,20.00
2017-07-17T05:25:19.926Z,20.10
2017-07-17T05:27:48.815Z,20.10
2017-07-17T05:30:17.741Z,20.10
2017-07-17T05:32:46.460Z,20.10
2017-07-17T05:35:15.945Z,20.10
2017-07-17T05:37:44.825Z,20.10
2017-07-17T05:40:13.684Z,20.00
2017-07-17T05:42:42.537Z,20.00
2017-07-17T05:45:11.411Z,20.00
2017-07-17T05:47:40.300Z,20.00
2017-07-17T05:50:09.157Z,20.00
2017-07-17T05:52:38.041Z,20.00
2017-07-17T05:55:06.891Z,20.00
2017-07-17T05:57:35.773Z,20.00
2017-07-17T06:00:03.951Z,20.10
2017-07-17T06:02:32.805Z,20.00
2017-07-17T06:05:01.653Z,20.00
2017-07-17T06:07:31.310Z,20.00
2017-07-17T06:10:00.183Z,20.00
2017-07-17T06:12:29.045Z,20.00
2017-07-17T06:14:58.695Z,20.00
2017-07-17T06:17:27.578Z,20.00
2017-07-17T06:19:56.475Z,20.10
2017-07-17T06:22:25.359Z,20.10
2017-07-17T06:24:54.306Z,20.10
2017-07-17T06:27:23.200Z,20.10
2017-07-17T06:29:52.874Z,19.90
2017-07-17T06:32:21.760Z,19.90
2017-07-17T06:34:50.641Z,19.80
2017-07-17T06:37:19.528Z,19.80
2017-07-17T06:39:48.408Z,19.80
2017-07-17T06:42:17.281Z,19.80
2017-07-17T06:44:46.156Z,19.90
2017-07-17T06:47:15.002Z,19.90
2017-07-17T06:49:43.885Z,20.00
2017-07-17T06:52:12.760Z,19.90
2017-07-17T06:54:41.644Z,19.70
2017-07-17T06:57:10.201Z,19.60
2017-07-17T06:59:39.049Z,19.70
2017-07-17T07:02:07.947Z,19.60
2017-07-17T07:04:36.853Z,19.70
2017-07-17T07:07:05.757Z,19.70
2017-07-17T07:09:34.655Z,19.70
2017-07-17T07:12:03.567Z,19.60
2017-07-17T07:14:33.220Z,19.60
2017-07-17T07:17:02.108Z,19.60
2017-07-17T07:19:30.981Z,19.60
2017-07-17T07:21:59.868Z,19.60
2017-07-17T07:24:28.731Z,19.60
2017-07-17T07:26:57.613Z,19.60
2017-07-17T07:29:26.462Z,19.60
2017-07-17T07:31:55.305Z,19.60
2017-07-17T07:34:24.010Z,19.60
2017-07-17T07:36:52.888Z,19.50
2017-07-17T07:39:21.772Z,19.60
2017-07-17T07:41:50.485Z,19.60
2017-07-17T07:44:20.132Z,19.70
2017-07-17T07:46:49.010Z,19.60
2017-07-17T07:49:17.893Z,19.70
2017-07-17T07:51:46.792Z,19.90
2017-07-17T07:54:15.676Z,19.90
2017-07-17T07:56:44.562Z,19.90
2017-07-17T07:59:14.213Z,20.00
2017-07-17T08:01:43.122Z,20.00
2017-07-17T08:04:12.018Z,20.10
2017-07-17T08:06:40.893Z,20.10
2017-07-17T08:09:09.756Z,20.10
2017-07-17T08:11:38.660Z,20.20
2017-07-17T08:14:07.562Z,20.40
2017-07-17T08:16:36.446Z,20.40
2017-07-17T08:19:05.316Z,20.50
2017-07-17T08:21:34.194Z,20.50
2017-07-17T08:24:03.076Z,20.60
2017-07-17T08:26:32.735Z,20.50
2017-07-17T08:29:01.640Z,20.50
2017-07-17T08:31:30.533Z,20.30
2017-07-17T08:33:59.434Z,20.10
2017-07-17T08:36:28.329Z,19.90
2017-07-17T08:38:57.186Z,19.90
2017-07-17T08:41:26.098Z,19.90
2017-07-17T08:43:54.997Z,20.00
2017-07-17T08:46:23.906Z,20.00
2017-07-17T08:48:53.567Z,20.40
2017-07-17T08:51:22.460Z,20.40
2017-07-17T08:53:51.362Z,20.60
2017-07-17T08:56:20.271Z,20.70
2017-07-17T08:58:49.174Z,20.70
2017-07-17T09:01:18.062Z,20.60
2017-07-17T09:03:48.034Z,20.70
2017-07-17T09:06:16.933Z,20.80
2017-07-17T09:08:45.840Z,20.80
2017-07-17T09:11:14.733Z,21.00
2017-07-17T09:13:43.638Z,21.10
2017-07-17T09:16:12.557Z,21.00
2017-07-17T09:18:41.483Z,20.80
2017-07-17T09:21:11.857Z,20.70
2017-07-17T09:23:40.757Z,20.70
2017-07-17T09:26:10.419Z,20.70
2017-07-17T09:28:39.326Z,20.70
2017-07-17T09:31:08.220Z,20.60
2017-07-17T09:33:37.126Z,20.60
2017-07-17T09:36:06.029Z,20.70
2017-07-17T09:38:34.936Z,20.70
2017-07-17T09:41:03.861Z,20.80
2017-07-17T09:43:32.756Z,20.80
2017-07-17T09:46:01.650Z,20.90
2017-07-17T09:48:30.536Z,20.90
2017-07-17T09:50:59.451Z,21.00
2017-07-17T09:53:28.352Z,21.10
2017-07-17T09:55:57.248Z,21.10
2017-07-17T09:58:26.146Z,21.10
2017-07-17T10:00:55.056Z,21.20
2017-07-17T10:03:24.730Z,21.30
2017-07-17T10:05:53.634Z,21.20
2017-07-17T10:08:22.524Z,21.20
2017-07-17T10:10:51.422Z,21.20
2017-07-17T10:13:20.283Z,21.40
2017-07-17T10:15:49.207Z,21.50
2017-07-17T10:18:18.101Z,21.50
2017-07-17T10:20:46.999Z,21.50
2017-07-17T10:23:15.896Z,21.40
2017-07-17T10:25:45.369Z,21.40
2017-07-17T10:28:14.273Z,21.40
2017-07-17T10:30:43.169Z,21.40
2017-07-17T10:33:12.067Z,21.40
2017-07-17T10:35:40.964Z,21.40
2017-07-17T10:38:09.862Z,21.40
2017-07-17T10:40:39.535Z,21.50
2017-07-17T10:43:08.434Z,21.50
2017-07-17T10:45:37.291Z,21.70
2017-07-17T10:48:06.195Z,21.80
2017-07-17T10:50:35.046Z,21.90
2017-07-17T10:53:03.931Z,22.00
2017-07-17T10:55:32.817Z,22.10
2017-07-17T10:58:01.656Z,22.10
2017-07-17T11:00:30.179Z,22.00
2017-07-17T11:02:59.069Z,22.00
2017-07-17T11:05:27.960Z,22.10
2017-07-17T11:07:56.822Z,22.20
2017-07-17T11:10:25.671Z,22.30
2017-07-17T11:12:55.308Z,22.40
2017-07-17T11:15:24.158Z,22.40
2017-07-17T11:17:53.036Z,22.60
2017-07-17T11:20:21.906Z,22.90
2017-07-17T11:22:50.793Z,23.10
2017-07-17T11:25:19.660Z,23.30
2017-07-17T11:27:48.552Z,23.60
2017-07-17T11:30:17.438Z,23.70
2017-07-17T11:32:46.314Z,23.70
2017-07-17T11:35:15.272Z,24.00
2017-07-17T11:37:44.165Z,24.30
2017-07-17T11:40:13.050Z,24.40
2017-07-17T11:42:41.942Z,24.50
2017-07-17T11:45:10.833Z,24.20
2017-07-17T12:00:20.211Z,24.10
2017-07-17T12:02:49.089Z,24.30
2017-07-17T12:07:46.647Z,24.20
2017-07-17T12:10:15.540Z,24.20
2017-07-17T12:12:44.431Z,24.50
2017-07-17T12:15:13.322Z,24.80
2017-07-17T12:17:42.187Z,24.90
2017-07-17T12:20:11.083Z,24.70
2017-07-17T12:22:39.979Z,24.50
2017-07-17T12:25:08.866Z,24.60
2017-07-17T12:27:37.767Z,24.60
2017-07-17T12:30:06.655Z,24.40
2017-07-17T12:32:35.541Z,24.30
2017-07-17T12:35:04.458Z,24.30
2017-07-17T12:37:33.341Z,24.50
2017-07-17T12:40:02.234Z,24.70
2017-07-17T12:42:31.124Z,24.60
2017-07-17T12:45:00.018Z,24.50
2017-07-17T12:47:28.873Z,24.40
2017-07-17T12:49:57.760Z,24.50
2017-07-17T12:52:26.650Z,24.50
2017-07-17T12:54:55.537Z,24.80
2017-07-17T12:57:24.382Z,25.00
2017-07-17T12:59:53.238Z,25.00
2017-07-17T13:02:22.114Z,25.00
2017-07-17T13:04:51.022Z,25.10
2017-07-17T13:07:19.901Z,25.10
2017-07-17T13:09:48.791Z,25.10
2017-07-17T13:12:17.678Z,25.20
2017-07-17T13:14:46.556Z,25.00
2017-07-17T13:17:15.440Z,25.00
2017-07-17T13:19:44.330Z,25.20
2017-07-17T13:22:13.987Z,25.80
2017-07-17T13:24:42.878Z,25.80
2017-07-17T13:27:11.718Z,26.10
2017-07-17T13:29:40.385Z,26.40
2017-07-17T13:32:09.275Z,26.60
2017-07-17T13:34:38.666Z,26.70
2017-07-17T13:37:07.559Z,26.30
2017-07-17T13:39:36.186Z,26.30
2017-07-17T13:42:05.089Z,26.60
2017-07-17T13:44:33.686Z,26.30
2017-07-17T13:47:02.566Z,26.30
2017-07-17T13:49:31.161Z,26.40
2017-07-17T13:51:59.785Z,26.60
2017-07-17T13:54:28.397Z,26.40
2017-07-17T13:56:57.010Z,26.50
2017-07-17T13:59:25.628Z,26.80
2017-07-17T14:01:54.984Z,26.90
2017-07-17T14:04:23.684Z,26.90
2017-07-17T14:06:52.314Z,27.10
2017-07-17T14:09:20.599Z,27.20
2017-07-17T14:11:49.177Z,27.10
2017-07-17T14:14:17.768Z,26.50
2017-07-17T14:16:46.402Z,26.40
2017-07-17T14:19:15.026Z,26.70
2017-07-17T14:21:44.493Z,27.00
2017-07-17T14:24:13.119Z,27.00
2017-07-17T14:26:41.745Z,27.00
2017-07-17T14:29:10.365Z,27.00
2017-07-17T14:31:38.980Z,26.90
2017-07-17T14:34:07.570Z,27.00
2017-07-17T14:36:36.195Z,26.90
2017-07-17T14:39:04.125Z,26.50
2017-07-17T14:41:32.757Z,26.10
2017-07-17T14:46:40.389Z,26.10
2017-07-17T14:49:09.023Z,26.10
2017-07-17T14:51:37.651Z,26.10
2017-07-17T14:54:06.239Z,26.00
2017-07-17T14:56:34.857Z,25.80
2017-07-17T14:59:03.517Z,25.80
2017-07-17T15:01:32.129Z,25.60
2017-07-17T15:04:00.752Z,25.30
2017-07-17T15:06:30.082Z,25.40
2017-07-17T15:08:58.698Z,25.50
2017-07-17T15:11:27.583Z,25.20
2017-07-17T15:13:56.474Z,25.00
2017-07-17T15:16:25.365Z,25.00
2017-07-17T15:18:54.261Z,25.00
2017-07-17T15:21:23.150Z,25.00
2017-07-17T15:23:52.034Z,25.00
2017-07-17T15:26:20.940Z,25.10
2017-07-17T15:28:49.835Z,25.20
2017-07-17T15:31:18.721Z,25.40
2017-07-17T15:33:47.602Z,25.60
2017-07-17T15:36:17.267Z,25.70
2017-07-17T15:38:46.156Z,25.80
2017-07-17T15:41:15.108Z,25.90
2017-07-17T15:43:43.999Z,25.90
2017-07-17T15:46:12.630Z,25.60
2017-07-17T15:48:41.528Z,25.40
2017-07-17T15:51:10.414Z,25.50
2017-07-17T15:53:39.281Z,25.40
2017-07-17T15:56:07.918Z,25.40
2017-07-17T15:58:36.777Z,25.30
2017-07-17T16:01:06.420Z,25.40
2017-07-17T16:03:35.301Z,25.40
2017-07-17T16:06:04.177Z,25.20
2017-07-17T16:08:33.082Z,25.00
2017-07-17T16:11:01.982Z,24.90
2017-07-17T16:13:30.880Z,24.60
2017-07-17T16:15:59.766Z,24.50
2017-07-17T16:18:29.996Z,24.40
2017-07-17T16:20:58.889Z,24.20
2017-07-17T16:23:27.791Z,24.20
2017-07-17T16:25:56.697Z,24.10
2017-07-17T16:28:25.625Z,24.00
2017-07-17T16:30:54.534Z,24.00
2017-07-17T16:33:23.454Z,23.80
2017-07-17T16:35:52.383Z,23.70
2017-07-17T16:38:22.044Z,23.60
2017-07-17T16:40:50.949Z,23.60
2017-07-17T16:43:19.991Z,23.60
2017-07-17T16:45:49.146Z,23.60
2017-07-17T16:48:18.299Z,23.60
2017-07-17T16:50:47.408Z,23.50
2017-07-17T16:53:16.502Z,23.50
2017-07-17T16:55:45.548Z,23.50
2017-07-17T16:58:14.703Z,23.50
2017-07-17T17:00:43.814Z,23.40
2017-07-17T17:03:12.994Z,23.30
2017-07-17T17:05:42.173Z,23.20
2017-07-17T17:08:11.221Z,23.20
2017-07-17T17:10:40.391Z,23.20
2017-07-17T17:13:09.395Z,23.20
2017-07-17T17:15:38.616Z,23.30
2017-07-17T17:18:08.189Z,23.40
2017-07-17T17:20:37.433Z,23.40
2017-07-17T17:23:06.550Z,23.20
2017-07-17T17:25:36.439Z,22.90
2017-07-17T17:28:05.351Z,22.90
2017-07-17T17:30:34.270Z,22.90
2017-07-17T17:33:03.139Z,22.90
2017-07-17T17:35:32.036Z,22.90
2017-07-17T17:38:01.722Z,22.80
2017-07-17T17:40:30.634Z,22.80
2017-07-17T17:42:59.537Z,22.80
2017-07-17T17:45:28.467Z,22.70
2017-07-17T17:47:57.386Z,22.60
2017-07-17T17:50:26.303Z,22.60
2017-07-17T17:52:55.213Z,22.60
2017-07-17T17:55:24.128Z,22.70
2017-07-17T17:57:53.042Z,22.70
2017-07-17T18:00:21.944Z,22.70
2017-07-17T18:02:50.853Z,22.60
2017-07-17T18:05:19.717Z,22.60
2017-07-17T18:07:48.612Z,22.50
2017-07-17T18:10:17.526Z,22.50
2017-07-17T18:12:46.438Z,22.50
2017-07-17T18:15:16.104Z,22.50
2017-07-17T18:17:45.018Z,22.50
2017-07-17T18:20:13.937Z,22.50
2017-07-17T18:22:42.843Z,22.50
2017-07-17T18:25:12.561Z,22.50
2017-07-17T18:27:41.186Z,22.50
2017-07-17T18:30:10.089Z,22.50
2017-07-17T18:32:39.042Z,22.50
2017-07-17T18:35:07.939Z,22.50
2017-07-17T18:37:36.844Z,22.50
2017-07-17T18:40:05.751Z,22.50
2017-07-17T18:42:34.670Z,22.40
2017-07-17T18:45:04.656Z,22.40
2017-07-17T18:47:33.566Z,22.40
2017-07-17T18:50:02.457Z,22.40
2017-07-17T18:52:31.367Z,22.30
2017-07-17T18:55:01.109Z,22.20
2017-07-17T18:57:30.027Z,22.20
2017-07-17T18:59:58.952Z,22.20
2017-07-17T19:02:27.833Z,22.10
2017-07-17T19:04:56.723Z,22.10
2017-07-17T19:07:25.624Z,22.10
2017-07-17T19:09:54.505Z,22.00
2017-07-17T19:12:24.226Z,22.00
2017-07-17T19:14:53.897Z,22.00
2017-07-17T19:17:22.809Z,22.00
2017-07-17T19:19:51.664Z,21.90
2017-07-17T19:22:20.562Z,21.90
2017-07-17T19:24:50.161Z,21.80
2017-07-17T19:27:19.058Z,21.80
2017-07-17T19:29:47.963Z,21.80
2017-07-17T19:32:16.865Z,21.80
2017-07-17T19:34:45.774Z,21.80
2017-07-17T19:37:14.623Z,21.80
2017-07-17T19:39:43.483Z,21.90
2017-07-17T19:42:13.156Z,21.70
2017-07-17T19:44:42.052Z,21.60
2017-07-17T19:47:10.951Z,21.60
2017-07-17T19:49:39.833Z,21.60
2017-07-17T19:52:11.351Z,21.60
2017-07-17T19:54:41.177Z,21.60
2017-07-17T19:57:10.090Z,21.60
2017-07-17T19:59:40.534Z,21.60
2017-07-17T20:02:09.452Z,21.60
2017-07-17T20:04:38.371Z,21.50
2017-07-17T20:07:07.286Z,21.40
2017-07-17T20:09:36.165Z,21.30
2017-07-17T20:12:05.014Z,21.20
2017-07-17T20:14:33.867Z,21.20
2017-07-17T20:17:02.769Z,21.10
2017-07-17T20:19:31.652Z,21.10
2017-07-17T20:22:00.550Z,20.90
2017-07-17T20:24:29.443Z,20.90
2017-07-17T20:26:58.352Z,20.90
2017-07-17T20:29:27.273Z,20.90
2017-07-17T20:31:56.171Z,20.90
2017-07-17T20:34:25.069Z,20.90
2017-07-17T20:36:53.961Z,20.90
2017-07-17T20:39:22.873Z,20.90
2017-07-17T20:41:51.773Z,20.90
2017-07-17T20:44:20.669Z,20.80
2017-07-17T20:46:49.575Z,20.70
2017-07-17T20:49:18.466Z,20.50
2017-07-17T20:51:47.324Z,20.40
2017-07-17T20:54:16.216Z,20.30
2017-07-17T20:56:45.133Z,20.20
2017-07-17T20:59:14.042Z,20.20
2017-07-17T21:01:42.947Z,20.10
2017-07-17T21:04:12.624Z,20.10
2017-07-17T21:06:41.543Z,20.10
2017-07-17T21:09:10.444Z,20.10
2017-07-17T21:11:39.362Z,20.20
2017-07-17T21:14:08.262Z,20.20
2017-07-17T21:16:37.157Z,20.20
2017-07-17T21:19:06.070Z,20.20
2017-07-17T21:21:34.975Z,20.20
2017-07-17T21:24:03.878Z,20.10
2017-07-17T21:26:32.779Z,20.10
2017-07-17T21:29:02.444Z,20.00
2017-07-17T21:31:31.366Z,20.00
2017-07-17T21:34:00.270Z,20.00
2017-07-17T21:36:29.166Z,20.00
2017-07-17T21:38:58.834Z,19.90
2017-07-17T21:41:27.732Z,19.90
2017-07-17T21:43:56.633Z,19.90
2017-07-17T21:46:25.541Z,19.90
2017-07-17T21:48:54.446Z,19.90
2017-07-17T21:51:23.358Z,19.90
2017-07-17T21:53:52.224Z,19.80
2017-07-17T21:56:21.898Z,19.70
2017-07-17T21:58:50.818Z,19.70
2017-07-17T22:01:19.730Z,19.60
2017-07-17T22:03:49.406Z,19.50
2017-07-17T22:06:18.316Z,19.60
2017-07-17T22:08:47.209Z,19.50
2017-07-17T22:11:16.101Z,19.40
2017-07-17T22:13:45.019Z,19.40
2017-07-17T22:16:13.925Z,19.50
2017-07-17T22:18:42.826Z,19.50
2017-07-17T22:21:11.734Z,19.40
2017-07-17T22:23:41.311Z,19.40
2017-07-17T22:26:09.876Z,19.40
2017-07-17T22:28:38.594Z,19.30
2017-07-17T22:31:07.489Z,19.30
2017-07-17T22:33:36.395Z,19.30
2017-07-17T22:36:05.304Z,19.30
2017-07-17T22:38:34.214Z,19.20
2017-07-17T22:41:03.126Z,19.20
2017-07-17T22:43:32.045Z,19.20
2017-07-17T22:46:00.955Z,19.10
2017-07-17T22:48:29.870Z,19.20
2017-07-17T22:50:58.770Z,19.10
2017-07-17T22:53:27.639Z,19.10
2017-07-17T22:55:56.543Z,19.10
2017-07-17T22:58:25.451Z,19.00
2017-07-17T23:00:54.341Z,19.00
2017-07-17T23:03:23.254Z,18.90
2017-07-17T23:05:52.161Z,18.90
2017-07-17T23:08:21.067Z,18.90
2017-07-17T23:10:49.979Z,18.90
2017-07-17T23:13:18.878Z,18.90
2017-07-17T23:15:47.741Z,18.80
2017-07-17T23:18:16.631Z,18.80
2017-07-17T23:20:45.535Z,18.80
2017-07-17T23:23:14.440Z,18.80
2017-07-17T23:25:43.300Z,18.60
2017-07-17T23:28:12.203Z,18.60
2017-07-17T23:30:41.113Z,18.60
2017-07-17T23:33:10.022Z,18.60
2017-07-17T23:35:38.884Z,18.60
2017-07-17T23:38:07.757Z,18.60
2017-07-17T23:40:36.665Z,18.60
2017-07-17T23:43:05.561Z,18.60
2017-07-17T23:45:34.475Z,18.60
2017-07-17T23:48:03.377Z,18.50
2017-07-17T23:50:32.303Z,18.50
2017-07-17T23:53:01.205Z,18.40
2017-07-17T23:55:30.118Z,18.40
2017-07-17T23:57:59.023Z,18.40
